sensor_id;sensor_type;location;lat;lon;timestamp;P1;durP1;ratioP1;P2;durP2;ratioP2
74577;SDS011;63173;49.086;33.418;2022-12-10T00:01:27;46.72;;;12.18;;
74577;SDS011;63173;49.086;33.418;2022-12-10T00:03:54;99.45;;;13.02;;
74577;SDS011;63173;49.086;33.418;2022-12-10T00:06:20;134.80;;;21.13;;
74577;SDS011;63173;49.086;33.418;2022-12-10T00:08:48;102.13;;;19.48;;
74577;SDS011;63173;49.086;33.418;2022-12-10T00:11:14;98.03;;;19.58;;
74577;SDS011;63173;49.086;33.418;2022-12-10T00:13:40;117.25;;;17.50;;
74577;SDS011;63173;49.086;33.418;2022-12-10T00:16:07;92.60;;;16.80;;
74577;SDS011;63173;49.086;33.418;2022-12-10T00:18:35;110.18;;;15.45;;
74577;SDS011;63173;49.086;33.418;2022-12-10T00:21:15;40.45;;;11.13;;
74577;SDS011;63173;49.086;33.418;2022-12-10T00:23:42;54.28;;;14.88;;
74577;SDS011;63173;49.086;33.418;2022-12-10T00:26:13;60.65;;;16.20;;
74577;SDS011;63173;49.086;33.418;2022-12-10T00:28:43;57.15;;;15.65;;
74577;SDS011;63173;49.086;33.418;2022-12-10T00:31:10;65.80;;;19.38;;
74577;SDS011;63173;49.086;33.418;2022-12-10T00:33:38;101.47;;;35.33;;
74577;SDS011;63173;49.086;33.418;2022-12-10T00:36:04;87.15;;;31.30;;
74577;SDS011;63173;49.086;33.418;2022-12-10T00:38:32;90.57;;;33.40;;
74577;SDS011;63173;49.086;33.418;2022-12-10T00:40:58;41.03;;;14.32;;
74577;SDS011;63173;49.086;33.418;2022-12-10T00:43:23;45.80;;;16.45;;
74577;SDS011;63173;49.086;33.418;2022-12-10T00:45:49;51.83;;;18.85;;
74577;SDS011;63173;49.086;33.418;2022-12-10T00:48:14;40.50;;;15.02;;
74577;SDS011;63173;49.086;33.418;2022-12-10T00:50:40;43.60;;;14.80;;
74577;SDS011;63173;49.086;33.418;2022-12-10T00:53:05;39.17;;;15.85;;
74577;SDS011;63173;49.086;33.418;2022-12-10T00:55:31;41.00;;;15.45;;
74577;SDS011;63173;49.086;33.418;2022-12-10T00:57:56;44.17;;;17.50;;
74577;SDS011;63173;49.086;33.418;2022-12-10T01:00:21;60.38;;;23.05;;
74577;SDS011;63173;49.086;33.418;2022-12-10T01:02:47;49.75;;;19.35;;
74577;SDS011;63173;49.086;33.418;2022-12-10T01:05:12;58.95;;;21.52;;
74577;SDS011;63173;49.086;33.418;2022-12-10T01:07:37;52.08;;;20.45;;
74577;SDS011;63173;49.086;33.418;2022-12-10T01:10:03;64.82;;;22.55;;
74577;SDS011;63173;49.086;33.418;2022-12-10T01:12:29;56.28;;;20.08;;
74577;SDS011;63173;49.086;33.418;2022-12-10T01:14:54;47.83;;;18.02;;
74577;SDS011;63173;49.086;33.418;2022-12-10T01:17:20;45.38;;;16.35;;
74577;SDS011;63173;49.086;33.418;2022-12-10T01:19:46;59.05;;;20.90;;
74577;SDS011;63173;49.086;33.418;2022-12-10T01:22:12;40.65;;;16.50;;
74577;SDS011;63173;49.086;33.418;2022-12-10T01:24:37;53.50;;;20.27;;
74577;SDS011;63173;49.086;33.418;2022-12-10T01:27:03;48.15;;;17.63;;
74577;SDS011;63173;49.086;33.418;2022-12-10T01:29:28;45.67;;;17.38;;
74577;SDS011;63173;49.086;33.418;2022-12-10T01:31:56;47.72;;;16.95;;
74577;SDS011;63173;49.086;33.418;2022-12-10T01:34:22;57.58;;;18.98;;
74577;SDS011;63173;49.086;33.418;2022-12-10T01:36:49;43.47;;;17.13;;
74577;SDS011;63173;49.086;33.418;2022-12-10T01:39:16;49.05;;;17.85;;
74577;SDS011;63173;49.086;33.418;2022-12-10T01:41:48;56.75;;;19.38;;
74577;SDS011;63173;49.086;33.418;2022-12-10T01:46:44;59.47;;;20.10;;
74577;SDS011;63173;49.086;33.418;2022-12-10T01:49:18;56.58;;;19.85;;
74577;SDS011;63173;49.086;33.418;2022-12-10T01:51:46;55.75;;;20.45;;
74577;SDS011;63173;49.086;33.418;2022-12-10T01:54:15;61.08;;;21.83;;
74577;SDS011;63173;49.086;33.418;2022-12-10T01:56:45;52.60;;;19.27;;
74577;SDS011;63173;49.086;33.418;2022-12-10T01:59:15;57.63;;;21.17;;
74577;SDS011;63173;49.086;33.418;2022-12-10T02:16:31;40.80;;;14.23;;
74577;SDS011;63173;49.086;33.418;2022-12-10T02:18:45;43.28;;;14.15;;
74577;SDS011;63173;49.086;33.418;2022-12-10T02:21:16;36.13;;;13.10;;
74577;SDS011;63173;49.086;33.418;2022-12-10T02:23:56;34.08;;;13.15;;
74577;SDS011;63173;49.086;33.418;2022-12-10T02:29:34;35.53;;;13.90;;
74577;SDS011;63173;49.086;33.418;2022-12-10T02:32:03;31.90;;;12.98;;
74577;SDS011;63173;49.086;33.418;2022-12-10T02:34:33;35.13;;;13.45;;
74577;SDS011;63173;49.086;33.418;2022-12-10T02:37:04;33.28;;;12.75;;
74577;SDS011;63173;49.086;33.418;2022-12-10T02:39:36;34.60;;;14.00;;
74577;SDS011;63173;49.086;33.418;2022-12-10T02:42:04;36.65;;;13.38;;
74577;SDS011;63173;49.086;33.418;2022-12-10T02:44:33;32.35;;;13.63;;
74577;SDS011;63173;49.086;33.418;2022-12-10T02:47:03;32.30;;;12.60;;
74577;SDS011;63173;49.086;33.418;2022-12-10T02:49:30;35.28;;;13.98;;
74577;SDS011;63173;49.086;33.418;2022-12-10T02:51:56;35.00;;;14.73;;
74577;SDS011;63173;49.086;33.418;2022-12-10T02:57:35;33.78;;;14.13;;
74577;SDS011;63173;49.086;33.418;2022-12-10T03:00:23;37.63;;;14.13;;
74577;SDS011;63173;49.086;33.418;2022-12-10T03:08:16;37.17;;;13.53;;
74577;SDS011;63173;49.086;33.418;2022-12-10T03:10:55;36.15;;;12.82;;
74577;SDS011;63173;49.086;33.418;2022-12-10T03:13:38;38.10;;;13.88;;
74577;SDS011;63173;49.086;33.418;2022-12-10T03:16:10;39.85;;;14.23;;
74577;SDS011;63173;49.086;33.418;2022-12-10T03:18:37;48.47;;;16.27;;
74577;SDS011;63173;49.086;33.418;2022-12-10T03:21:04;37.97;;;12.77;;
74577;SDS011;63173;49.086;33.418;2022-12-10T03:23:33;42.83;;;14.07;;
74577;SDS011;63173;49.086;33.418;2022-12-10T03:26:02;37.70;;;12.90;;
74577;SDS011;63173;49.086;33.418;2022-12-10T03:28:29;79.43;;;24.90;;
74577;SDS011;63173;49.086;33.418;2022-12-10T03:31:03;50.47;;;14.82;;
74577;SDS011;63173;49.086;33.418;2022-12-10T03:33:29;42.25;;;13.98;;
74577;SDS011;63173;49.086;33.418;2022-12-10T03:35:56;45.35;;;14.82;;
74577;SDS011;63173;49.086;33.418;2022-12-10T03:38:21;37.60;;;12.05;;
74577;SDS011;63173;49.086;33.418;2022-12-10T03:40:47;40.53;;;12.77;;
74577;SDS011;63173;49.086;33.418;2022-12-10T03:43:13;40.60;;;12.82;;
74577;SDS011;63173;49.086;33.418;2022-12-10T03:45:39;35.65;;;12.60;;
74577;SDS011;63173;49.086;33.418;2022-12-10T03:48:05;48.00;;;13.50;;
74577;SDS011;63173;49.086;33.418;2022-12-10T03:50:31;32.75;;;11.00;;
74577;SDS011;63173;49.086;33.418;2022-12-10T03:52:56;40.65;;;12.25;;
74577;SDS011;63173;49.086;33.418;2022-12-10T03:55:22;37.00;;;12.20;;
74577;SDS011;63173;49.086;33.418;2022-12-10T03:57:47;44.33;;;12.98;;
74577;SDS011;63173;49.086;33.418;2022-12-10T04:00:13;36.00;;;12.07;;
74577;SDS011;63173;49.086;33.418;2022-12-10T04:02:39;35.00;;;10.48;;
74577;SDS011;63173;49.086;33.418;2022-12-10T04:05:04;27.25;;;9.63;;
74577;SDS011;63173;49.086;33.418;2022-12-10T04:07:31;26.45;;;9.23;;
74577;SDS011;63173;49.086;33.418;2022-12-10T04:09:57;18.90;;;7.28;;
74577;SDS011;63173;49.086;33.418;2022-12-10T04:12:22;21.08;;;8.95;;
74577;SDS011;63173;49.086;33.418;2022-12-10T04:14:48;18.52;;;7.82;;
74577;SDS011;63173;49.086;33.418;2022-12-10T04:17:32;18.52;;;7.03;;
74577;SDS011;63173;49.086;33.418;2022-12-10T04:19:58;22.40;;;8.02;;
74577;SDS011;63173;49.086;33.418;2022-12-10T04:22:24;26.00;;;9.25;;
74577;SDS011;63173;49.086;33.418;2022-12-10T04:25:10;25.70;;;9.90;;
74577;SDS011;63173;49.086;33.418;2022-12-10T04:27:55;23.63;;;9.18;;
74577;SDS011;63173;49.086;33.418;2022-12-10T04:30:20;24.35;;;9.10;;
74577;SDS011;63173;49.086;33.418;2022-12-10T04:32:46;27.17;;;8.55;;
74577;SDS011;63173;49.086;33.418;2022-12-10T04:35:11;35.47;;;9.40;;
74577;SDS011;63173;49.086;33.418;2022-12-10T04:37:37;30.23;;;8.90;;
74577;SDS011;63173;49.086;33.418;2022-12-10T04:40:03;31.65;;;10.10;;
74577;SDS011;63173;49.086;33.418;2022-12-10T04:42:28;30.10;;;9.20;;
74577;SDS011;63173;49.086;33.418;2022-12-10T04:44:54;46.35;;;16.00;;
74577;SDS011;63173;49.086;33.418;2022-12-10T04:47:19;33.45;;;8.98;;
74577;SDS011;63173;49.086;33.418;2022-12-10T04:49:45;33.13;;;10.15;;
74577;SDS011;63173;49.086;33.418;2022-12-10T04:52:11;36.38;;;9.38;;
74577;SDS011;63173;49.086;33.418;2022-12-10T04:54:38;34.92;;;10.07;;
74577;SDS011;63173;49.086;33.418;2022-12-10T04:57:04;34.50;;;11.05;;
74577;SDS011;63173;49.086;33.418;2022-12-10T04:59:29;38.58;;;11.27;;
74577;SDS011;63173;49.086;33.418;2022-12-10T05:01:54;48.30;;;12.07;;
74577;SDS011;63173;49.086;33.418;2022-12-10T05:04:20;47.80;;;12.77;;
74577;SDS011;63173;49.086;33.418;2022-12-10T05:06:47;47.38;;;11.20;;
74577;SDS011;63173;49.086;33.418;2022-12-10T05:09:13;36.03;;;10.20;;
74577;SDS011;63173;49.086;33.418;2022-12-10T05:11:39;46.25;;;11.65;;
74577;SDS011;63173;49.086;33.418;2022-12-10T05:14:05;42.97;;;11.52;;
74577;SDS011;63173;49.086;33.418;2022-12-10T05:16:31;44.33;;;12.55;;
74577;SDS011;63173;49.086;33.418;2022-12-10T05:18:58;44.63;;;13.60;;
74577;SDS011;63173;49.086;33.418;2022-12-10T05:21:24;48.95;;;13.13;;
74577;SDS011;63173;49.086;33.418;2022-12-10T05:24:11;49.20;;;13.45;;
74577;SDS011;63173;49.086;33.418;2022-12-10T05:26:37;55.90;;;15.15;;
74577;SDS011;63173;49.086;33.418;2022-12-10T05:29:03;61.05;;;15.10;;
74577;SDS011;63173;49.086;33.418;2022-12-10T05:31:29;72.10;;;17.30;;
74577;SDS011;63173;49.086;33.418;2022-12-10T05:33:55;70.60;;;17.70;;
74577;SDS011;63173;49.086;33.418;2022-12-10T05:36:23;60.80;;;15.23;;
74577;SDS011;63173;49.086;33.418;2022-12-10T05:38:50;81.97;;;17.83;;
74577;SDS011;63173;49.086;33.418;2022-12-10T05:41:20;70.55;;;16.48;;
74577;SDS011;63173;49.086;33.418;2022-12-10T05:43:47;87.47;;;18.35;;
74577;SDS011;63173;49.086;33.418;2022-12-10T05:46:17;79.95;;;17.65;;
74577;SDS011;63173;49.086;33.418;2022-12-10T05:48:44;97.45;;;20.25;;
74577;SDS011;63173;49.086;33.418;2022-12-10T05:51:14;78.88;;;18.38;;
74577;SDS011;63173;49.086;33.418;2022-12-10T05:53:41;73.53;;;18.00;;
74577;SDS011;63173;49.086;33.418;2022-12-10T05:56:09;87.68;;;20.05;;
74577;SDS011;63173;49.086;33.418;2022-12-10T06:01:06;66.47;;;16.45;;
74577;SDS011;63173;49.086;33.418;2022-12-10T06:03:42;61.95;;;15.95;;
74577;SDS011;63173;49.086;33.418;2022-12-10T06:06:08;69.05;;;17.20;;
74577;SDS011;63173;49.086;33.418;2022-12-10T06:08:34;59.65;;;16.27;;
74577;SDS011;63173;49.086;33.418;2022-12-10T06:11:04;69.40;;;18.33;;
74577;SDS011;63173;49.086;33.418;2022-12-10T06:13:31;55.17;;;15.88;;
74577;SDS011;63173;49.086;33.418;2022-12-10T06:15:57;60.88;;;15.85;;
74577;SDS011;63173;49.086;33.418;2022-12-10T06:18:22;62.85;;;17.60;;
74577;SDS011;63173;49.086;33.418;2022-12-10T06:20:49;52.95;;;15.50;;
74577;SDS011;63173;49.086;33.418;2022-12-10T06:23:14;59.33;;;16.75;;
74577;SDS011;63173;49.086;33.418;2022-12-10T06:25:40;58.95;;;16.60;;
74577;SDS011;63173;49.086;33.418;2022-12-10T06:28:06;58.95;;;16.48;;
74577;SDS011;63173;49.086;33.418;2022-12-10T06:30:31;68.55;;;17.70;;
74577;SDS011;63173;49.086;33.418;2022-12-10T06:32:57;68.70;;;17.17;;
74577;SDS011;63173;49.086;33.418;2022-12-10T06:35:23;67.03;;;17.02;;
74577;SDS011;63173;49.086;33.418;2022-12-10T06:37:48;70.93;;;18.30;;
74577;SDS011;63173;49.086;33.418;2022-12-10T06:40:14;70.03;;;18.92;;
74577;SDS011;63173;49.086;33.418;2022-12-10T06:42:40;70.43;;;17.92;;
74577;SDS011;63173;49.086;33.418;2022-12-10T06:45:06;72.88;;;18.42;;
74577;SDS011;63173;49.086;33.418;2022-12-10T06:47:32;72.50;;;19.27;;
74577;SDS011;63173;49.086;33.418;2022-12-10T06:49:57;68.47;;;17.98;;
74577;SDS011;63173;49.086;33.418;2022-12-10T06:52:23;64.65;;;18.77;;
74577;SDS011;63173;49.086;33.418;2022-12-10T06:54:48;65.72;;;19.67;;
74577;SDS011;63173;49.086;33.418;2022-12-10T06:57:13;64.47;;;17.92;;
74577;SDS011;63173;49.086;33.418;2022-12-10T06:59:39;64.60;;;18.38;;
74577;SDS011;63173;49.086;33.418;2022-12-10T07:02:04;55.03;;;17.55;;
74577;SDS011;63173;49.086;33.418;2022-12-10T07:04:30;58.33;;;17.25;;
74577;SDS011;63173;49.086;33.418;2022-12-10T07:06:55;53.70;;;16.45;;
74577;SDS011;63173;49.086;33.418;2022-12-10T07:09:21;55.13;;;17.98;;
74577;SDS011;63173;49.086;33.418;2022-12-10T07:11:46;45.97;;;16.52;;
74577;SDS011;63173;49.086;33.418;2022-12-10T07:14:13;47.35;;;17.60;;
74577;SDS011;63173;49.086;33.418;2022-12-10T07:16:40;66.20;;;22.98;;
74577;SDS011;63173;49.086;33.418;2022-12-10T07:19:06;52.42;;;16.77;;
74577;SDS011;63173;49.086;33.418;2022-12-10T07:21:35;56.60;;;18.52;;
74577;SDS011;63173;49.086;33.418;2022-12-10T07:24:03;44.03;;;15.13;;
74577;SDS011;63173;49.086;33.418;2022-12-10T07:26:31;43.55;;;13.88;;
74577;SDS011;63173;49.086;33.418;2022-12-10T07:28:58;43.05;;;14.10;;
74577;SDS011;63173;49.086;33.418;2022-12-10T07:31:25;41.38;;;15.20;;
74577;SDS011;63173;49.086;33.418;2022-12-10T07:33:51;46.33;;;16.60;;
74577;SDS011;63173;49.086;33.418;2022-12-10T07:36:18;47.80;;;16.83;;
74577;SDS011;63173;49.086;33.418;2022-12-10T07:38:45;43.72;;;15.27;;
74577;SDS011;63173;49.086;33.418;2022-12-10T07:41:12;47.97;;;16.35;;
74577;SDS011;63173;49.086;33.418;2022-12-10T07:43:38;47.90;;;16.45;;
74577;SDS011;63173;49.086;33.418;2022-12-10T07:46:07;42.08;;;14.25;;
74577;SDS011;63173;49.086;33.418;2022-12-10T07:48:37;40.85;;;14.35;;
74577;SDS011;63173;49.086;33.418;2022-12-10T07:51:04;42.05;;;13.80;;
74577;SDS011;63173;49.086;33.418;2022-12-10T07:53:30;43.65;;;13.82;;
74577;SDS011;63173;49.086;33.418;2022-12-10T07:55:55;42.95;;;12.90;;
74577;SDS011;63173;49.086;33.418;2022-12-10T07:58:21;52.50;;;15.43;;
74577;SDS011;63173;49.086;33.418;2022-12-10T08:00:47;44.10;;;13.75;;
74577;SDS011;63173;49.086;33.418;2022-12-10T08:03:12;43.83;;;13.00;;
74577;SDS011;63173;49.086;33.418;2022-12-10T08:05:38;52.00;;;16.08;;
74577;SDS011;63173;49.086;33.418;2022-12-10T08:08:04;50.00;;;16.17;;
74577;SDS011;63173;49.086;33.418;2022-12-10T08:10:30;57.05;;;17.58;;
74577;SDS011;63173;49.086;33.418;2022-12-10T08:12:58;68.95;;;18.60;;
74577;SDS011;63173;49.086;33.418;2022-12-10T08:15:23;59.13;;;16.90;;
74577;SDS011;63173;49.086;33.418;2022-12-10T08:17:49;72.10;;;24.58;;
74577;SDS011;63173;49.086;33.418;2022-12-10T08:20:14;62.25;;;15.63;;
74577;SDS011;63173;49.086;33.418;2022-12-10T08:22:39;55.05;;;16.35;;
74577;SDS011;63173;49.086;33.418;2022-12-10T08:25:05;71.70;;;16.17;;
74577;SDS011;63173;49.086;33.418;2022-12-10T08:27:31;66.55;;;16.88;;
74577;SDS011;63173;49.086;33.418;2022-12-10T08:29:56;77.30;;;19.15;;
74577;SDS011;63173;49.086;33.418;2022-12-10T08:32:21;70.70;;;18.77;;
74577;SDS011;63173;49.086;33.418;2022-12-10T08:34:47;94.03;;;20.27;;
74577;SDS011;63173;49.086;33.418;2022-12-10T08:37:13;70.50;;;18.80;;
74577;SDS011;63173;49.086;33.418;2022-12-10T08:39:39;81.90;;;17.95;;
74577;SDS011;63173;49.086;33.418;2022-12-10T08:42:05;82.47;;;19.08;;
74577;SDS011;63173;49.086;33.418;2022-12-10T08:44:30;77.35;;;18.10;;
74577;SDS011;63173;49.086;33.418;2022-12-10T08:46:56;81.50;;;20.00;;
74577;SDS011;63173;49.086;33.418;2022-12-10T08:49:21;99.05;;;20.60;;
74577;SDS011;63173;49.086;33.418;2022-12-10T08:51:47;82.97;;;19.77;;
74577;SDS011;63173;49.086;33.418;2022-12-10T08:54:12;85.82;;;19.05;;
74577;SDS011;63173;49.086;33.418;2022-12-10T08:56:38;86.10;;;20.90;;
74577;SDS011;63173;49.086;33.418;2022-12-10T08:59:04;91.72;;;22.27;;
74577;SDS011;63173;49.086;33.418;2022-12-10T09:01:30;89.38;;;21.40;;
74577;SDS011;63173;49.086;33.418;2022-12-10T09:03:55;73.72;;;17.75;;
74577;SDS011;63173;49.086;33.418;2022-12-10T09:06:22;90.45;;;21.48;;
74577;SDS011;63173;49.086;33.418;2022-12-10T09:08:49;90.60;;;25.00;;
74577;SDS011;63173;49.086;33.418;2022-12-10T09:11:19;85.32;;;20.27;;
74577;SDS011;63173;49.086;33.418;2022-12-10T09:13:46;93.28;;;21.73;;
74577;SDS011;63173;49.086;33.418;2022-12-10T09:16:12;92.18;;;21.33;;
74577;SDS011;63173;49.086;33.418;2022-12-10T09:18:38;116.47;;;31.70;;
74577;SDS011;63173;49.086;33.418;2022-12-10T09:21:04;99.13;;;21.55;;
74577;SDS011;63173;49.086;33.418;2022-12-10T09:23:30;99.35;;;23.30;;
74577;SDS011;63173;49.086;33.418;2022-12-10T09:25:56;120.05;;;24.30;;
74577;SDS011;63173;49.086;33.418;2022-12-10T09:28:21;103.20;;;22.98;;
74577;SDS011;63173;49.086;33.418;2022-12-10T09:30:54;123.82;;;25.35;;
74577;SDS011;63173;49.086;33.418;2022-12-10T09:33:21;105.80;;;24.10;;
74577;SDS011;63173;49.086;33.418;2022-12-10T09:35:47;92.82;;;23.25;;
74577;SDS011;63173;49.086;33.418;2022-12-10T09:38:12;107.53;;;26.83;;
74577;SDS011;63173;49.086;33.418;2022-12-10T09:40:43;97.25;;;20.83;;
74577;SDS011;63173;49.086;33.418;2022-12-10T09:46:19;105.93;;;22.52;;
74577;SDS011;63173;49.086;33.418;2022-12-10T09:51:41;135.07;;;24.42;;
74577;SDS011;63173;49.086;33.418;2022-12-10T09:54:26;144.40;;;23.65;;
74577;SDS011;63173;49.086;33.418;2022-12-10T09:56:57;104.90;;;22.02;;
74577;SDS011;63173;49.086;33.418;2022-12-10T09:59:24;119.40;;;25.13;;
74577;SDS011;63173;49.086;33.418;2022-12-10T10:04:36;110.63;;;24.15;;
74577;SDS011;63173;49.086;33.418;2022-12-10T10:07:02;130.57;;;27.85;;
74577;SDS011;63173;49.086;33.418;2022-12-10T10:09:30;105.53;;;24.55;;
74577;SDS011;63173;49.086;33.418;2022-12-10T10:12:07;103.53;;;24.10;;
74577;SDS011;63173;49.086;33.418;2022-12-10T10:14:37;117.38;;;25.27;;
74577;SDS011;63173;49.086;33.418;2022-12-10T10:17:03;124.57;;;29.95;;
74577;SDS011;63173;49.086;33.418;2022-12-10T10:19:36;129.68;;;27.17;;
74577;SDS011;63173;49.086;33.418;2022-12-10T10:22:04;117.78;;;28.23;;
74577;SDS011;63173;49.086;33.418;2022-12-10T10:24:39;125.28;;;28.90;;
74577;SDS011;63173;49.086;33.418;2022-12-10T10:27:20;119.30;;;26.15;;
74577;SDS011;63173;49.086;33.418;2022-12-10T10:29:48;109.15;;;24.90;;
74577;SDS011;63173;49.086;33.418;2022-12-10T10:32:17;92.72;;;23.08;;
74577;SDS011;63173;49.086;33.418;2022-12-10T10:34:45;101.63;;;24.95;;
74577;SDS011;63173;49.086;33.418;2022-12-10T10:37:28;94.68;;;24.60;;
74577;SDS011;63173;49.086;33.418;2022-12-10T10:39:56;89.20;;;25.00;;
74577;SDS011;63173;49.086;33.418;2022-12-10T10:42:39;92.13;;;24.88;;
74577;SDS011;63173;49.086;33.418;2022-12-10T10:50:36;85.00;;;21.73;;
74577;SDS011;63173;49.086;33.418;2022-12-10T10:53:19;83.32;;;24.15;;
74577;SDS011;63173;49.086;33.418;2022-12-10T10:55:48;77.68;;;20.65;;
74577;SDS011;63173;49.086;33.418;2022-12-10T10:58:17;66.82;;;19.50;;
74577;SDS011;63173;49.086;33.418;2022-12-10T11:00:54;58.28;;;19.67;;
74577;SDS011;63173;49.086;33.418;2022-12-10T11:03:25;57.58;;;17.42;;
74577;SDS011;63173;49.086;33.418;2022-12-10T11:05:53;47.78;;;17.58;;
74577;SDS011;63173;49.086;33.418;2022-12-10T11:08:21;54.50;;;17.35;;
74577;SDS011;63173;49.086;33.418;2022-12-10T11:10:51;50.25;;;16.08;;
74577;SDS011;63173;49.086;33.418;2022-12-10T11:13:24;42.78;;;16.45;;
74577;SDS011;63173;49.086;33.418;2022-12-10T11:15:56;49.63;;;15.65;;
74577;SDS011;63173;49.086;33.418;2022-12-10T11:18:50;43.22;;;17.05;;
74577;SDS011;63173;49.086;33.418;2022-12-10T11:21:27;45.60;;;15.45;;
74577;SDS011;63173;49.086;33.418;2022-12-10T11:23:54;44.13;;;16.08;;
74577;SDS011;63173;49.086;33.418;2022-12-10T11:29:17;39.25;;;14.25;;
74577;SDS011;63173;49.086;33.418;2022-12-10T11:45:57;45.88;;;16.05;;
74577;SDS011;63173;49.086;33.418;2022-12-10T11:51:33;48.35;;;16.38;;
74577;SDS011;63173;49.086;33.418;2022-12-10T11:54:20;48.70;;;16.13;;
74577;SDS011;63173;49.086;33.418;2022-12-10T12:27:48;44.42;;;15.90;;
74577;SDS011;63173;49.086;33.418;2022-12-10T12:30:19;45.17;;;16.48;;
74577;SDS011;63173;49.086;33.418;2022-12-10T12:32:49;51.65;;;16.75;;
74577;SDS011;63173;49.086;33.418;2022-12-10T12:35:20;46.53;;;17.73;;
74577;SDS011;63173;49.086;33.418;2022-12-10T12:40:48;44.75;;;16.75;;
74577;SDS011;63173;49.086;33.418;2022-12-10T12:43:19;45.67;;;15.07;;
74577;SDS011;63173;49.086;33.418;2022-12-10T12:45:52;35.63;;;14.40;;
74577;SDS011;63173;49.086;33.418;2022-12-10T12:53:26;35.15;;;13.95;;
74577;SDS011;63173;49.086;33.418;2022-12-10T12:59:19;36.50;;;14.27;;
74577;SDS011;63173;49.086;33.418;2022-12-10T13:01:46;33.22;;;13.40;;
74577;SDS011;63173;49.086;33.418;2022-12-10T13:04:16;39.33;;;14.30;;
74577;SDS011;63173;49.086;33.418;2022-12-10T13:06:42;37.53;;;14.45;;
74577;SDS011;63173;49.086;33.418;2022-12-10T13:12:32;30.83;;;12.10;;
74577;SDS011;63173;49.086;33.418;2022-12-10T13:15:21;35.00;;;13.65;;
74577;SDS011;63173;49.086;33.418;2022-12-10T13:23:32;34.10;;;12.77;;
74577;SDS011;63173;49.086;33.418;2022-12-10T13:26:00;38.20;;;14.52;;
74577;SDS011;63173;49.086;33.418;2022-12-10T13:28:29;39.97;;;13.07;;
74577;SDS011;63173;49.086;33.418;2022-12-10T13:33:47;54.25;;;16.13;;
74577;SDS011;63173;49.086;33.418;2022-12-10T13:36:24;35.90;;;12.77;;
74577;SDS011;63173;49.086;33.418;2022-12-10T13:41:27;33.20;;;12.15;;
74577;SDS011;63173;49.086;33.418;2022-12-10T13:44:27;31.58;;;12.82;;
74577;SDS011;63173;49.086;33.418;2022-12-10T13:49:44;34.47;;;12.65;;
74577;SDS011;63173;49.086;33.418;2022-12-10T13:52:19;35.05;;;14.82;;
74577;SDS011;63173;49.086;33.418;2022-12-10T13:57:53;37.50;;;13.80;;
74577;SDS011;63173;49.086;33.418;2022-12-10T14:03:50;36.00;;;13.52;;
74577;SDS011;63173;49.086;33.418;2022-12-10T14:06:38;45.10;;;13.65;;
74577;SDS011;63173;49.086;33.418;2022-12-10T14:09:06;37.92;;;13.77;;
74577;SDS011;63173;49.086;33.418;2022-12-10T14:11:38;41.13;;;13.60;;
74577;SDS011;63173;49.086;33.418;2022-12-10T14:14:11;35.30;;;13.02;;
74577;SDS011;63173;49.086;33.418;2022-12-10T14:16:49;40.40;;;15.43;;
74577;SDS011;63173;49.086;33.418;2022-12-10T14:19:15;50.10;;;16.67;;
74577;SDS011;63173;49.086;33.418;2022-12-10T14:21:42;41.50;;;14.82;;
74577;SDS011;63173;49.086;33.418;2022-12-10T14:24:28;42.08;;;14.38;;
74577;SDS011;63173;49.086;33.418;2022-12-10T14:27:15;38.33;;;13.93;;
74577;SDS011;63173;49.086;33.418;2022-12-10T14:29:44;45.38;;;14.35;;
74577;SDS011;63173;49.086;33.418;2022-12-10T14:32:12;38.38;;;15.68;;
74577;SDS011;63173;49.086;33.418;2022-12-10T14:34:40;46.58;;;15.18;;
74577;SDS011;63173;49.086;33.418;2022-12-10T14:37:06;53.17;;;16.65;;
74577;SDS011;63173;49.086;33.418;2022-12-10T14:39:32;54.35;;;17.65;;
74577;SDS011;63173;49.086;33.418;2022-12-10T14:41:59;47.00;;;16.00;;
74577;SDS011;63173;49.086;33.418;2022-12-10T14:44:27;48.50;;;18.05;;
74577;SDS011;63173;49.086;33.418;2022-12-10T14:47:12;56.35;;;17.40;;
74577;SDS011;63173;49.086;33.418;2022-12-10T14:49:41;50.35;;;17.40;;
74577;SDS011;63173;49.086;33.418;2022-12-10T14:54:39;52.30;;;17.08;;
74577;SDS011;63173;49.086;33.418;2022-12-10T14:57:06;59.97;;;18.70;;
74577;SDS011;63173;49.086;33.418;2022-12-10T14:59:42;48.50;;;18.48;;
74577;SDS011;63173;49.086;33.418;2022-12-10T15:02:29;51.70;;;18.00;;
74577;SDS011;63173;49.086;33.418;2022-12-10T15:04:58;59.38;;;17.52;;
74577;SDS011;63173;49.086;33.418;2022-12-10T15:07:25;64.13;;;19.00;;
74577;SDS011;63173;49.086;33.418;2022-12-10T15:09:56;64.03;;;20.00;;
74577;SDS011;63173;49.086;33.418;2022-12-10T15:12:28;64.68;;;19.45;;
74577;SDS011;63173;49.086;33.418;2022-12-10T15:14:58;62.28;;;19.15;;
74577;SDS011;63173;49.086;33.418;2022-12-10T15:17:33;62.47;;;21.42;;
74577;SDS011;63173;49.086;33.418;2022-12-10T15:20:01;56.40;;;19.23;;
74577;SDS011;63173;49.086;33.418;2022-12-10T15:22:26;58.28;;;19.60;;
74577;SDS011;63173;49.086;33.418;2022-12-10T15:24:54;66.13;;;20.20;;
74577;SDS011;63173;49.086;33.418;2022-12-10T15:27:21;62.85;;;21.10;;
74577;SDS011;63173;49.086;33.418;2022-12-10T15:29:48;79.18;;;25.88;;
74577;SDS011;63173;49.086;33.418;2022-12-10T15:32:35;65.50;;;21.88;;
74577;SDS011;63173;49.086;33.418;2022-12-10T15:35:00;71.18;;;20.42;;
74577;SDS011;63173;49.086;33.418;2022-12-10T15:37:33;68.25;;;20.30;;
74577;SDS011;63173;49.086;33.418;2022-12-10T15:40:02;54.97;;;20.17;;
74577;SDS011;63173;49.086;33.418;2022-12-10T15:45:03;56.88;;;19.73;;
74577;SDS011;63173;49.086;33.418;2022-12-10T15:47:40;62.17;;;20.70;;
74577;SDS011;63173;49.086;33.418;2022-12-10T15:50:05;69.68;;;21.75;;
74577;SDS011;63173;49.086;33.418;2022-12-10T15:52:31;77.28;;;21.00;;
74577;SDS011;63173;49.086;33.418;2022-12-10T15:54:57;59.15;;;20.05;;
74577;SDS011;63173;49.086;33.418;2022-12-10T15:59:57;64.78;;;21.58;;
74577;SDS011;63173;49.086;33.418;2022-12-10T16:07:43;63.22;;;22.13;;
74577;SDS011;63173;49.086;33.418;2022-12-10T16:10:10;68.30;;;24.40;;
74577;SDS011;63173;49.086;33.418;2022-12-10T16:12:37;68.65;;;23.40;;
74577;SDS011;63173;49.086;33.418;2022-12-10T16:15:04;66.40;;;23.42;;
74577;SDS011;63173;49.086;33.418;2022-12-10T16:17:32;75.85;;;25.05;;
74577;SDS011;63173;49.086;33.418;2022-12-10T16:19:58;68.45;;;23.05;;
74577;SDS011;63173;49.086;33.418;2022-12-10T16:22:24;81.47;;;24.75;;
74577;SDS011;63173;49.086;33.418;2022-12-10T16:24:50;70.63;;;25.15;;
74577;SDS011;63173;49.086;33.418;2022-12-10T16:27:15;77.18;;;26.15;;
74577;SDS011;63173;49.086;33.418;2022-12-10T16:29:42;69.60;;;22.65;;
74577;SDS011;63173;49.086;33.418;2022-12-10T16:32:09;72.90;;;25.50;;
74577;SDS011;63173;49.086;33.418;2022-12-10T16:34:35;77.55;;;24.45;;
74577;SDS011;63173;49.086;33.418;2022-12-10T16:37:00;70.70;;;24.27;;
74577;SDS011;63173;49.086;33.418;2022-12-10T16:39:26;66.22;;;21.23;;
74577;SDS011;63173;49.086;33.418;2022-12-10T16:41:52;69.18;;;24.48;;